sensor_id;sensor_type;location;lat;lon;timestamp;P1;durP1;ratioP1;P2;durP2;ratioP2
53674;SDS011;39574;50.534;8.500;2022-07-29T00:02:47;5.1;;;1.5;;
53674;SDS011;39574;50.534;8.500;2022-07-29T00:07:47;4.4;;;1.3;;
53674;SDS011;39574;50.534;8.500;2022-07-29T00:12:46;4.3;;;1.3;;
53674;SDS011;39574;50.534;8.500;2022-07-29T00:17:46;4.5;;;1.3;;
53674;SDS011;39574;50.534;8.500;2022-07-29T00:22:45;3.8;;;1.1;;
53674;SDS011;39574;50.534;8.500;2022-07-29T00:27:45;4.0;;;1.2;;
53674;SDS011;39574;50.534;8.500;2022-07-29T00:32:44;4.5;;;1.2;;
53674;SDS011;39574;50.534;8.500;2022-07-29T00:37:44;4.2;;;1.2;;
53674;SDS011;39574;50.534;8.500;2022-07-29T00:42:43;3.8;;;1.3;;
53674;SDS011;39574;50.534;8.500;2022-07-29T00:47:43;3.3;;;1.2;;
53674;SDS011;39574;50.534;8.500;2022-07-29T00:52:42;4.0;;;1.2;;
53674;SDS011;39574;50.534;8.500;2022-07-29T00:57:42;4.6;;;1.3;;
53674;SDS011;39574;50.534;8.500;2022-07-29T01:02:41;4.2;;;1.1;;
53674;SDS011;39574;50.534;8.500;2022-07-29T01:07:40;3.9;;;1.1;;
53674;SDS011;39574;50.534;8.500;2022-07-29T01:12:40;4.0;;;1.1;;
53674;SDS011;39574;50.534;8.500;2022-07-29T01:17:41;4.4;;;1.2;;
53674;SDS011;39574;50.534;8.500;2022-07-29T01:22:46;4.2;;;1.3;;
53674;SDS011;39574;50.534;8.500;2022-07-29T01:27:41;3.8;;;1.4;;
53674;SDS011;39574;50.534;8.500;2022-07-29T01:32:38;4.4;;;1.5;;
53674;SDS011;39574;50.534;8.500;2022-07-29T01:37:38;5.1;;;1.7;;
53674;SDS011;39574;50.534;8.500;2022-07-29T01:42:38;5.4;;;1.9;;
53674;SDS011;39574;50.534;8.500;2022-07-29T01:47:37;6.3;;;2.1;;
53674;SDS011;39574;50.534;8.500;2022-07-29T01:52:36;6.3;;;2.3;;
53674;SDS011;39574;50.534;8.500;2022-07-29T01:57:35;7.2;;;2.5;;
53674;SDS011;39574;50.534;8.500;2022-07-29T02:02:34;6.8;;;2.6;;
53674;SDS011;39574;50.534;8.500;2022-07-29T02:07:34;6.8;;;2.6;;
53674;SDS011;39574;50.534;8.500;2022-07-29T02:12:33;5.7;;;2.6;;
53674;SDS011;39574;50.534;8.500;2022-07-29T02:17:33;5.4;;;2.4;;
53674;SDS011;39574;50.534;8.500;2022-07-29T02:22:33;5.5;;;2.3;;
53674;SDS011;39574;50.534;8.500;2022-07-29T02:27:31;5.2;;;2.2;;
53674;SDS011;39574;50.534;8.500;2022-07-29T02:32:30;5.0;;;2.1;;
53674;SDS011;39574;50.534;8.500;2022-07-29T02:37:30;5.5;;;2.1;;
53674;SDS011;39574;50.534;8.500;2022-07-29T02:42:29;5.4;;;2.0;;
53674;SDS011;39574;50.534;8.500;2022-07-29T02:47:30;4.8;;;1.9;;
53674;SDS011;39574;50.534;8.500;2022-07-29T02:52:31;4.9;;;2.2;;
53674;SDS011;39574;50.534;8.500;2022-07-29T02:57:29;4.7;;;2.2;;
53674;SDS011;39574;50.534;8.500;2022-07-29T03:02:26;5.8;;;2.3;;
53674;SDS011;39574;50.534;8.500;2022-07-29T03:07:25;6.1;;;2.1;;
53674;SDS011;39574;50.534;8.500;2022-07-29T03:12:25;5.4;;;2.0;;
53674;SDS011;39574;50.534;8.500;2022-07-29T03:17:24;5.0;;;2.0;;
53674;SDS011;39574;50.534;8.500;2022-07-29T03:22:23;5.0;;;2.0;;
53674;SDS011;39574;50.534;8.500;2022-07-29T03:27:23;4.6;;;2.1;;
53674;SDS011;39574;50.534;8.500;2022-07-29T03:32:22;5.4;;;2.2;;
53674;SDS011;39574;50.534;8.500;2022-07-29T03:37:21;4.7;;;2.1;;
53674;SDS011;39574;50.534;8.500;2022-07-29T03:42:21;4.8;;;2.2;;
53674;SDS011;39574;50.534;8.500;2022-07-29T03:47:20;4.7;;;2.3;;
53674;SDS011;39574;50.534;8.500;2022-07-29T03:52:19;4.5;;;2.3;;
53674;SDS011;39574;50.534;8.500;2022-07-29T03:57:18;4.8;;;2.3;;
53674;SDS011;39574;50.534;8.500;2022-07-29T04:02:18;5.0;;;2.2;;
53674;SDS011;39574;50.534;8.500;2022-07-29T04:07:17;4.5;;;2.1;;
53674;SDS011;39574;50.534;8.500;2022-07-29T04:12:16;4.6;;;2.2;;
53674;SDS011;39574;50.534;8.500;2022-07-29T04:17:15;4.4;;;2.2;;
53674;SDS011;39574;50.534;8.500;2022-07-29T04:22:15;4.4;;;2.1;;
53674;SDS011;39574;50.534;8.500;2022-07-29T04:27:15;3.7;;;2.0;;
53674;SDS011;39574;50.534;8.500;2022-07-29T04:32:13;3.8;;;2.1;;
53674;SDS011;39574;50.534;8.500;2022-07-29T04:37:13;4.4;;;2.3;;
53674;SDS011;39574;50.534;8.500;2022-07-29T04:42:13;4.7;;;2.3;;
53674;SDS011;39574;50.534;8.500;2022-07-29T04:47:13;4.5;;;2.2;;
53674;SDS011;39574;50.534;8.500;2022-07-29T04:52:10;4.9;;;2.2;;
53674;SDS011;39574;50.534;8.500;2022-07-29T04:57:10;4.8;;;2.1;;
53674;SDS011;39574;50.534;8.500;2022-07-29T05:02:09;5.1;;;2.1;;
53674;SDS011;39574;50.534;8.500;2022-07-29T05:07:10;5.0;;;2.0;;
53674;SDS011;39574;50.534;8.500;2022-07-29T05:12:09;5.1;;;1.9;;
53674;SDS011;39574;50.534;8.500;2022-07-29T05:17:07;5.5;;;2.1;;
53674;SDS011;39574;50.534;8.500;2022-07-29T05:22:06;5.4;;;2.3;;
53674;SDS011;39574;50.534;8.500;2022-07-29T05:27:05;5.4;;;2.5;;
53674;SDS011;39574;50.534;8.500;2022-07-29T05:32:06;5.6;;;2.4;;
53674;SDS011;39574;50.534;8.500;2022-07-29T05:37:04;5.0;;;2.3;;
53674;SDS011;39574;50.534;8.500;2022-07-29T05:42:06;5.4;;;2.2;;
53674;SDS011;39574;50.534;8.500;2022-07-29T05:47:03;5.3;;;2.2;;
53674;SDS011;39574;50.534;8.500;2022-07-29T05:52:02;4.7;;;2.1;;
53674;SDS011;39574;50.534;8.500;2022-07-29T05:57:01;4.9;;;2.2;;
53674;SDS011;39574;50.534;8.500;2022-07-29T06:02:00;4.3;;;2.2;;
53674;SDS011;39574;50.534;8.500;2022-07-29T06:07:00;4.6;;;2.2;;
53674;SDS011;39574;50.534;8.500;2022-07-29T06:11:59;4.7;;;2.1;;
53674;SDS011;39574;50.534;8.500;2022-07-29T06:17:00;5.2;;;2.0;;
53674;SDS011;39574;50.534;8.500;2022-07-29T06:21:59;6.6;;;2.0;;
53674;SDS011;39574;50.534;8.500;2022-07-29T06:26:58;6.1;;;2.0;;
53674;SDS011;39574;50.534;8.500;2022-07-29T06:31:57;6.0;;;2.2;;
53674;SDS011;39574;50.534;8.500;2022-07-29T06:36:56;5.7;;;2.2;;
53674;SDS011;39574;50.534;8.500;2022-07-29T06:41:56;5.8;;;2.3;;
53674;SDS011;39574;50.534;8.500;2022-07-29T06:46:55;5.4;;;2.3;;
53674;SDS011;39574;50.534;8.500;2022-07-29T06:51:56;5.1;;;2.2;;
53674;SDS011;39574;50.534;8.500;2022-07-29T06:56:54;5.1;;;2.1;;
53674;SDS011;39574;50.534;8.500;2022-07-29T07:01:53;5.4;;;2.1;;
53674;SDS011;39574;50.534;8.500;2022-07-29T07:06:55;5.5;;;2.1;;
53674;SDS011;39574;50.534;8.500;2022-07-29T07:11:53;5.2;;;2.2;;
53674;SDS011;39574;50.534;8.500;2022-07-29T07:16:53;5.3;;;2.1;;
53674;SDS011;39574;50.534;8.500;2022-07-29T07:21:52;5.4;;;2.1;;
53674;SDS011;39574;50.534;8.500;2022-07-29T07:26:51;5.3;;;2.0;;
53674;SDS011;39574;50.534;8.500;2022-07-29T07:31:50;5.0;;;2.1;;
53674;SDS011;39574;50.534;8.500;2022-07-29T07:36:50;5.1;;;2.1;;
53674;SDS011;39574;50.534;8.500;2022-07-29T07:41:49;4.7;;;1.9;;
53674;SDS011;39574;50.534;8.500;2022-07-29T07:46:49;5.1;;;2.1;;
53674;SDS011;39574;50.534;8.500;2022-07-29T07:51:48;6.3;;;2.1;;
53674;SDS011;39574;50.534;8.500;2022-07-29T07:56:48;5.7;;;2.0;;
53674;SDS011;39574;50.534;8.500;2022-07-29T08:01:48;4.7;;;1.8;;
53674;SDS011;39574;50.534;8.500;2022-07-29T08:06:47;4.5;;;1.8;;
53674;SDS011;39574;50.534;8.500;2022-07-29T08:11:47;4.7;;;1.9;;
53674;SDS011;39574;50.534;8.500;2022-07-29T08:16:46;5.2;;;2.0;;
53674;SDS011;39574;50.534;8.500;2022-07-29T08:21:46;4.9;;;2.0;;
53674;SDS011;39574;50.534;8.500;2022-07-29T08:26:46;6.3;;;2.0;;
53674;SDS011;39574;50.534;8.500;2022-07-29T08:31:45;5.7;;;2.0;;
53674;SDS011;39574;50.534;8.500;2022-07-29T08:36:45;5.1;;;2.1;;
53674;SDS011;39574;50.534;8.500;2022-07-29T08:41:44;4.9;;;2.3;;
53674;SDS011;39574;50.534;8.500;2022-07-29T08:46:44;4.3;;;2.1;;
53674;SDS011;39574;50.534;8.500;2022-07-29T08:51:44;4.4;;;2.0;;
53674;SDS011;39574;50.534;8.500;2022-07-29T08:56:43;5.0;;;2.0;;
53674;SDS011;39574;50.534;8.500;2022-07-29T09:01:43;5.0;;;2.2;;
53674;SDS011;39574;50.534;8.500;2022-07-29T09:06:44;5.6;;;2.2;;
53674;SDS011;39574;50.534;8.500;2022-07-29T09:11:42;5.5;;;2.3;;
53674;SDS011;39574;50.534;8.500;2022-07-29T09:16:43;5.1;;;2.3;;
53674;SDS011;39574;50.534;8.500;2022-07-29T09:21:41;4.5;;;2.1;;
53674;SDS011;39574;50.534;8.500;2022-07-29T09:26:42;4.2;;;2.1;;
53674;SDS011;39574;50.534;8.500;2022-07-29T09:31:42;4.0;;;2.1;;
53674;SDS011;39574;50.534;8.500;2022-07-29T09:36:42;3.9;;;2.2;;
53674;SDS011;39574;50.534;8.500;2022-07-29T09:41:44;4.2;;;2.3;;
53674;SDS011;39574;50.534;8.500;2022-07-29T09:46:40;5.0;;;2.5;;
53674;SDS011;39574;50.534;8.500;2022-07-29T09:51:40;5.0;;;2.5;;
53674;SDS011;39574;50.534;8.500;2022-07-29T09:56:40;6.0;;;2.4;;
53674;SDS011;39574;50.534;8.500;2022-07-29T10:01:39;4.8;;;2.1;;
53674;SDS011;39574;50.534;8.500;2022-07-29T10:06:54;4.9;;;2.2;;
53674;SDS011;39574;50.534;8.500;2022-07-29T10:11:39;4.6;;;2.2;;
53674;SDS011;39574;50.534;8.500;2022-07-29T10:16:39;5.3;;;2.3;;
53674;SDS011;39574;50.534;8.500;2022-07-29T10:21:38;5.5;;;2.4;;
53674;SDS011;39574;50.534;8.500;2022-07-29T10:26:38;5.8;;;2.4;;
53674;SDS011;39574;50.534;8.500;2022-07-29T10:31:40;5.8;;;2.4;;
53674;SDS011;39574;50.534;8.500;2022-07-29T10:36:42;5.2;;;2.3;;
53674;SDS011;39574;50.534;8.500;2022-07-29T10:41:43;4.9;;;2.3;;
53674;SDS011;39574;50.534;8.500;2022-07-29T10:46:38;5.1;;;2.3;;
53674;SDS011;39574;50.534;8.500;2022-07-29T10:51:54;5.3;;;2.5;;
53674;SDS011;39574;50.534;8.500;2022-07-29T10:56:38;5.0;;;2.5;;
53674;SDS011;39574;50.534;8.500;2022-07-29T11:01:39;4.9;;;2.4;;
53674;SDS011;39574;50.534;8.500;2022-07-29T11:07:09;4.4;;;2.3;;
53674;SDS011;39574;50.534;8.500;2022-07-29T11:11:39;3.7;;;2.2;;
53674;SDS011;39574;50.534;8.500;2022-07-29T11:17:09;3.8;;;2.1;;
53674;SDS011;39574;50.534;8.500;2022-07-29T11:21:38;4.6;;;2.2;;
53674;SDS011;39574;50.534;8.500;2022-07-29T11:26:37;4.4;;;2.2;;
53674;SDS011;39574;50.534;8.500;2022-07-29T11:31:38;4.1;;;2.3;;
53674;SDS011;39574;50.534;8.500;2022-07-29T11:36:37;4.6;;;2.3;;
53674;SDS011;39574;50.534;8.500;2022-07-29T11:41:37;4.6;;;2.4;;
53674;SDS011;39574;50.534;8.500;2022-07-29T11:46:45;4.5;;;2.4;;
53674;SDS011;39574;50.534;8.500;2022-07-29T11:51:37;5.1;;;2.4;;
53674;SDS011;39574;50.534;8.500;2022-07-29T11:56:37;5.2;;;2.6;;
53674;SDS011;39574;50.534;8.500;2022-07-29T12:01:37;4.7;;;2.5;;
53674;SDS011;39574;50.534;8.500;2022-07-29T12:06:37;4.2;;;2.5;;
53674;SDS011;39574;50.534;8.500;2022-07-29T12:11:37;4.3;;;2.4;;
53674;SDS011;39574;50.534;8.500;2022-07-29T12:16:37;4.9;;;2.6;;
53674;SDS011;39574;50.534;8.500;2022-07-29T12:21:43;5.3;;;2.6;;
53674;SDS011;39574;50.534;8.500;2022-07-29T12:26:37;4.9;;;2.4;;
53674;SDS011;39574;50.534;8.500;2022-07-29T12:31:37;4.6;;;2.5;;
53674;SDS011;39574;50.534;8.500;2022-07-29T12:36:37;4.7;;;2.5;;
53674;SDS011;39574;50.534;8.500;2022-07-29T12:41:37;4.3;;;2.3;;
53674;SDS011;39574;50.534;8.500;2022-07-29T12:46:37;4.1;;;2.2;;
53674;SDS011;39574;50.534;8.500;2022-07-29T12:51:37;5.2;;;2.3;;
53674;SDS011;39574;50.534;8.500;2022-07-29T12:56:37;4.4;;;2.3;;
53674;SDS011;39574;50.534;8.500;2022-07-29T13:01:37;4.6;;;2.4;;
53674;SDS011;39574;50.534;8.500;2022-07-29T13:06:38;4.2;;;2.3;;
53674;SDS011;39574;50.534;8.500;2022-07-29T13:11:38;4.0;;;2.2;;
53674;SDS011;39574;50.534;8.500;2022-07-29T13:21:38;3.7;;;2.3;;
53674;SDS011;39574;50.534;8.500;2022-07-29T13:26:39;4.2;;;2.3;;
53674;SDS011;39574;50.534;8.500;2022-07-29T13:31:37;4.6;;;2.4;;
53674;SDS011;39574;50.534;8.500;2022-07-29T13:36:37;4.6;;;2.5;;
53674;SDS011;39574;50.534;8.500;2022-07-29T13:41:37;4.4;;;2.5;;
53674;SDS011;39574;50.534;8.500;2022-07-29T13:46:37;4.0;;;2.3;;
53674;SDS011;39574;50.534;8.500;2022-07-29T13:51:37;4.1;;;2.3;;
53674;SDS011;39574;50.534;8.500;2022-07-29T13:56:37;3.5;;;2.2;;
53674;SDS011;39574;50.534;8.500;2022-07-29T14:01:37;3.3;;;2.3;;
53674;SDS011;39574;50.534;8.500;2022-07-29T14:06:37;3.6;;;2.3;;
53674;SDS011;39574;50.534;8.500;2022-07-29T14:11:37;3.7;;;2.3;;
53674;SDS011;39574;50.534;8.500;2022-07-29T14:16:37;3.6;;;2.3;;
53674;SDS011;39574;50.534;8.500;2022-07-29T14:21:37;3.4;;;2.2;;
53674;SDS011;39574;50.534;8.500;2022-07-29T14:26:37;3.1;;;2.1;;
53674;SDS011;39574;50.534;8.500;2022-07-29T14:31:36;3.6;;;2.2;;
53674;SDS011;39574;50.534;8.500;2022-07-29T14:36:36;3.8;;;2.3;;
53674;SDS011;39574;50.534;8.500;2022-07-29T14:41:36;3.6;;;2.3;;
53674;SDS011;39574;50.534;8.500;2022-07-29T14:46:36;3.6;;;2.3;;
53674;SDS011;39574;50.534;8.500;2022-07-29T14:51:36;3.5;;;2.2;;
53674;SDS011;39574;50.534;8.500;2022-07-29T14:56:35;3.9;;;2.2;;
53674;SDS011;39574;50.534;8.500;2022-07-29T15:01:35;3.6;;;2.3;;
53674;SDS011;39574;50.534;8.500;2022-07-29T15:06:35;4.1;;;2.7;;
53674;SDS011;39574;50.534;8.500;2022-07-29T15:11:35;5.6;;;2.9;;
53674;SDS011;39574;50.534;8.500;2022-07-29T15:16:35;5.8;;;3.3;;
53674;SDS011;39574;50.534;8.500;2022-07-29T15:21:34;6.5;;;3.6;;
53674;SDS011;39574;50.534;8.500;2022-07-29T15:26:34;6.2;;;3.5;;
53674;SDS011;39574;50.534;8.500;2022-07-29T15:31:33;7.4;;;3.9;;
53674;SDS011;39574;50.534;8.500;2022-07-29T15:36:33;9.0;;;3.9;;
53674;SDS011;39574;50.534;8.500;2022-07-29T15:41:32;9.5;;;4.2;;
53674;SDS011;39574;50.534;8.500;2022-07-29T15:46:32;9.3;;;4.4;;
53674;SDS011;39574;50.534;8.500;2022-07-29T15:51:32;8.8;;;4.8;;
53674;SDS011;39574;50.534;8.500;2022-07-29T15:56:31;8.0;;;4.7;;
53674;SDS011;39574;50.534;8.500;2022-07-29T16:01:31;7.1;;;4.4;;
53674;SDS011;39574;50.534;8.500;2022-07-29T16:06:30;6.7;;;4.0;;
53674;SDS011;39574;50.534;8.500;2022-07-29T16:11:30;6.9;;;3.8;;
53674;SDS011;39574;50.534;8.500;2022-07-29T16:16:30;7.0;;;3.6;;
53674;SDS011;39574;50.534;8.500;2022-07-29T16:21:30;6.8;;;3.6;;
53674;SDS011;39574;50.534;8.500;2022-07-29T16:26:29;6.2;;;3.2;;
53674;SDS011;39574;50.534;8.500;2022-07-29T16:31:29;5.5;;;3.0;;
53674;SDS011;39574;50.534;8.500;2022-07-29T16:36:29;5.0;;;2.8;;
53674;SDS011;39574;50.534;8.500;2022-07-29T16:41:29;5.1;;;2.8;;
53674;SDS011;39574;50.534;8.500;2022-07-29T16:46:28;5.5;;;2.8;;
53674;SDS011;39574;50.534;8.500;2022-07-29T16:51:28;5.1;;;2.9;;
53674;SDS011;39574;50.534;8.500;2022-07-29T16:56:28;4.8;;;2.8;;
53674;SDS011;39574;50.534;8.500;2022-07-29T17:01:27;4.5;;;2.6;;
53674;SDS011;39574;50.534;8.500;2022-07-29T17:06:27;4.3;;;2.7;;
53674;SDS011;39574;50.534;8.500;2022-07-29T17:11:27;4.6;;;2.7;;
53674;SDS011;39574;50.534;8.500;2022-07-29T17:16:27;4.6;;;2.7;;
53674;SDS011;39574;50.534;8.500;2022-07-29T17:21:26;4.7;;;2.8;;
53674;SDS011;39574;50.534;8.500;2022-07-29T17:26:26;5.4;;;3.3;;
53674;SDS011;39574;50.534;8.500;2022-07-29T17:31:26;5.5;;;3.5;;
53674;SDS011;39574;50.534;8.500;2022-07-29T17:36:25;4.7;;;3.1;;
53674;SDS011;39574;50.534;8.500;2022-07-29T17:41:25;4.4;;;3.0;;
53674;SDS011;39574;50.534;8.500;2022-07-29T17:46:25;4.6;;;3.0;;
53674;SDS011;39574;50.534;8.500;2022-07-29T17:51:25;4.6;;;3.1;;
53674;SDS011;39574;50.534;8.500;2022-07-29T17:56:24;4.7;;;3.1;;
53674;SDS011;39574;50.534;8.500;2022-07-29T18:01:23;4.6;;;3.2;;
53674;SDS011;39574;50.534;8.500;2022-07-29T18:06:23;4.8;;;3.4;;
53674;SDS011;39574;50.534;8.500;2022-07-29T18:11:22;5.0;;;3.8;;
53674;SDS011;39574;50.534;8.500;2022-07-29T18:16:22;5.0;;;3.9;;
53674;SDS011;39574;50.534;8.500;2022-07-29T18:21:22;4.7;;;3.8;;
53674;SDS011;39574;50.534;8.500;2022-07-29T18:26:21;5.0;;;3.7;;
53674;SDS011;39574;50.534;8.500;2022-07-29T18:31:21;4.8;;;3.5;;
53674;SDS011;39574;50.534;8.500;2022-07-29T18:36:20;5.4;;;3.7;;
53674;SDS011;39574;50.534;8.500;2022-07-29T18:41:20;5.3;;;3.8;;
53674;SDS011;39574;50.534;8.500;2022-07-29T18:46:20;4.8;;;3.8;;
53674;SDS011;39574;50.534;8.500;2022-07-29T18:51:19;5.3;;;4.0;;
53674;SDS011;39574;50.534;8.500;2022-07-29T18:56:19;5.1;;;3.7;;
53674;SDS011;39574;50.534;8.500;2022-07-29T19:01:18;5.2;;;3.7;;
53674;SDS011;39574;50.534;8.500;2022-07-29T19:06:18;4.9;;;3.6;;
53674;SDS011;39574;50.534;8.500;2022-07-29T19:11:17;5.0;;;3.5;;
53674;SDS011;39574;50.534;8.500;2022-07-29T19:16:17;5.2;;;3.7;;
53674;SDS011;39574;50.534;8.500;2022-07-29T19:21:16;5.2;;;3.7;;
53674;SDS011;39574;50.534;8.500;2022-07-29T19:26:16;4.9;;;3.9;;
53674;SDS011;39574;50.534;8.500;2022-07-29T19:31:15;5.0;;;3.8;;
53674;SDS011;39574;50.534;8.500;2022-07-29T19:36:15;5.2;;;3.9;;
53674;SDS011;39574;50.534;8.500;2022-07-29T19:41:14;5.9;;;4.0;;
53674;SDS011;39574;50.534;8.500;2022-07-29T19:46:14;5.6;;;4.0;;
53674;SDS011;39574;50.534;8.500;2022-07-29T19:51:13;6.2;;;4.1;;
53674;SDS011;39574;50.534;8.500;2022-07-29T19:56:13;5.4;;;3.9;;
53674;SDS011;39574;50.534;8.500;2022-07-29T20:01:12;5.0;;;3.6;;
53674;SDS011;39574;50.534;8.500;2022-07-29T20:06:12;5.1;;;3.6;;
53674;SDS011;39574;50.534;8.500;2022-07-29T20:11:11;4.6;;;3.4;;
53674;SDS011;39574;50.534;8.500;2022-07-29T20:16:11;4.6;;;3.4;;
53674;SDS011;39574;50.534;8.500;2022-07-29T20:21:10;4.4;;;3.3;;
53674;SDS011;39574;50.534;8.500;2022-07-29T20:26:10;4.6;;;3.2;;
53674;SDS011;39574;50.534;8.500;2022-07-29T20:31:09;4.8;;;3.2;;
53674;SDS011;39574;50.534;8.500;2022-07-29T20:36:08;4.8;;;3.5;;
53674;SDS011;39574;50.534;8.500;2022-07-29T20:41:08;4.7;;;3.4;;
53674;SDS011;39574;50.534;8.500;2022-07-29T20:46:08;4.3;;;3.0;;
53674;SDS011;39574;50.534;8.500;2022-07-29T20:51:07;4.7;;;3.0;;
53674;SDS011;39574;50.534;8.500;2022-07-29T20:56:07;4.0;;;2.8;;
53674;SDS011;39574;50.534;8.500;2022-07-29T21:01:06;3.9;;;2.6;;
53674;SDS011;39574;50.534;8.500;2022-07-29T21:06:05;3.7;;;2.5;;
53674;SDS011;39574;50.534;8.500;2022-07-29T21:11:05;3.7;;;2.7;;
53674;SDS011;39574;50.534;8.500;2022-07-29T21:16:04;3.7;;;2.6;;
53674;SDS011;39574;50.534;8.500;2022-07-29T21:21:04;4.0;;;2.7;;
53674;SDS011;39574;50.534;8.500;2022-07-29T21:26:03;4.0;;;2.8;;
53674;SDS011;39574;50.534;8.500;2022-07-29T21:31:04;3.6;;;2.6;;
53674;SDS011;39574;50.534;8.500;2022-07-29T21:36:03;3.4;;;2.6;;
53674;SDS011;39574;50.534;8.500;2022-07-29T21:41:02;4.4;;;2.7;;
53674;SDS011;39574;50.534;8.500;2022-07-29T21:46:02;4.5;;;2.8;;
53674;SDS011;39574;50.534;8.500;2022-07-29T21:51:01;4.3;;;2.8;;
53674;SDS011;39574;50.534;8.500;2022-07-29T21:56:00;4.4;;;2.8;;
53674;SDS011;39574;50.534;8.500;2022-07-29T22:00:59;4.6;;;3.0;;
53674;SDS011;39574;50.534;8.500;2022-07-29T22:05:59;4.2;;;3.0;;
53674;SDS011;39574;50.534;8.500;2022-07-29T22:10:58;3.8;;;3.0;;
53674;SDS011;39574;50.534;8.500;2022-07-29T22:15:58;4.1;;;3.0;;
53674;SDS011;39574;50.534;8.500;2022-07-29T22:20:57;5.3;;;3.3;;
53674;SDS011;39574;50.534;8.500;2022-07-29T22:25:56;5.7;;;3.6;;
53674;SDS011;39574;50.534;8.500;2022-07-29T22:30:56;5.3;;;3.6;;
53674;SDS011;39574;50.534;8.500;2022-07-29T22:35:55;5.3;;;3.7;;
53674;SDS011;39574;50.534;8.500;2022-07-29T22:40:54;5.1;;;3.7;;
53674;SDS011;39574;50.534;8.500;2022-07-29T22:45:54;5.3;;;3.8;;
53674;SDS011;39574;50.534;8.500;2022-07-29T22:50:53;5.5;;;3.9;;
53674;SDS011;39574;50.534;8.500;2022-07-29T22:55:53;5.7;;;3.9;;
53674;SDS011;39574;50.534;8.500;2022-07-29T23:00:52;5.7;;;4.0;;
53674;SDS011;39574;50.534;8.500;2022-07-29T23:05:51;5.8;;;4.2;;
53674;SDS011;39574;50.534;8.500;2022-07-29T23:10:51;6.1;;;4.4;;
53674;SDS011;39574;50.534;8.500;2022-07-29T23:15:50;5.6;;;4.1;;
53674;SDS011;39574;50.534;8.500;2022-07-29T23:20:50;5.4;;;3.9;;
53674;SDS011;39574;50.534;8.500;2022-07-29T23:25:49;6.2;;;3.9;;
53674;SDS011;39574;50.534;8.500;2022-07-29T23:30:48;5.9;;;3.9;;
53674;SDS011;39574;50.534;8.500;2022-07-29T23:35:48;7.3;;;4.0;;
53674;SDS011;39574;50.534;8.500;2022-07-29T23:40:48;6.9;;;4.0;;
53674;SDS011;39574;50.534;8.500;2022-07-29T23:45:46;6.5;;;3.9;;
53674;SDS011;39574;50.534;8.500;2022-07-29T23:50:46;6.1;;;3.9;;
53674;SDS011;39574;50.534;8.500;2022-07-29T23:55:45;6.2;;;3.9;;
